Time;durP1;ratioP1;P1;durP2;ratioP2;P2;SDS_P1;SDS_P2;PMS_P1;PMS_P2;Temp;Humidity;BMP_temperature;BMP_pressure;BME280_temperature;BME280_humidity;BME280_pressure;Samples;Min_cycle;Max_cycle;Signal;HPM_P1;HPM_P2
2023/06/23 00:01:45;;;;;;;;;;;;;;;27.21;68.29;99761.44;4493020;31;33600;-85
2023/06/23 00:04:13;;;;;;;;;;;;;;;27.14;68.39;99750.97;4488888;31;34331;-83
2023/06/23 00:06:40;;;;;;;;;;;;;;;27.07;68.59;99750.25;4488673;31;34241;-85
2023/06/23 00:09:13;;;;;;;;;;;;;;;27.14;68.48;99745.66;4484134;31;34145;-83
2023/06/23 00:11:41;;;;;;;;;;;;;;;26.86;69.49;99747.19;4483511;31;33363;-83
2023/06/23 00:14:09;;;;;;;;;;;;;;;27.01;68.76;99740.66;4485030;32;34315;-83
2023/06/23 00:16:36;;;;;;;;;;;;;;;27.15;68.47;99748.28;4484408;32;33660;-83
2023/06/23 00:19:04;;;;;;;;;;;;;;;27.23;68.20;99741.00;4482760;31;33855;-82
2023/06/23 00:21:31;;;;;;;;;;;;;;;27.08;68.56;99738.69;4485240;31;34273;-83
2023/06/23 00:23:59;;;;;;;;;;;;;;;27.15;68.03;99732.34;4477574;32;34813;-83
2023/06/23 00:26:27;;;;;;;;;;;;;;;27.16;67.54;99734.09;4484544;31;34037;-83
2023/06/23 00:28:54;;;;;;;;;;;;;;;27.07;68.26;99742.28;4484616;32;33798;-83
2023/06/23 00:31:21;;;;;;;;;;;;;;;26.99;68.95;99746.91;4488088;31;32942;-83
2023/06/23 00:33:49;;;;;;;;;;;;;;;26.95;68.84;99750.56;4491001;31;34821;-83
2023/06/23 00:36:20;;;;;;;;;;;;;;;26.95;68.79;99755.88;4491893;31;34270;-84
2023/06/23 00:38:47;;;;;;;;;;;;;;;26.83;69.27;99757.00;4485248;31;33907;-83
2023/06/23 00:41:16;;;;;;;;;;;;;;;26.81;69.29;99754.41;4486713;31;33510;-83
2023/06/23 00:43:49;;;;;;;;;;;;;;;26.85;69.23;99748.13;4487026;31;34770;-83
2023/06/23 00:46:17;;;;;;;;;;;;;;;27.22;67.11;99749.91;4485230;31;32788;-83
2023/06/23 00:48:47;;;;;;;;;;;;;;;27.11;67.69;99757.25;4490662;31;35044;-83
2023/06/23 00:51:15;;;;;;;;;;;;;;;27.07;67.58;99752.94;4484900;31;33303;-83
2023/06/23 00:53:48;;;;;;;;;;;;;;;27.01;68.03;99755.72;4488379;31;34298;-82
2023/06/23 00:56:16;;;;;;;;;;;;;;;26.99;67.47;99737.16;4493447;31;33908;-84
2023/06/23 00:58:43;;;;;;;;;;;;;;;27.09;66.49;99727.16;4491512;31;34646;-84
2023/06/23 01:01:13;;;;;;;;;;;;;;;27.15;66.74;99727.03;4472803;32;33406;-82
2023/06/23 01:03:43;;;;;;;;;;;;;;;27.19;66.86;99723.38;4487997;31;34321;-82
2023/06/23 01:06:20;;;;;;;;;;;;;;;27.22;66.70;99718.00;4486389;31;35052;-84
2023/06/23 01:08:48;;;;;;;;;;;;;;;26.91;67.95;99717.88;4490051;31;34366;-84
2023/06/23 01:11:22;;;;;;;;;;;;;;;26.58;69.29;99720.34;4475587;32;33276;-83
2023/06/23 01:13:49;;;;;;;;;;;;;;;26.40;70.23;99710.97;4477634;32;34193;-83
2023/06/23 01:16:28;;;;;;;;;;;;;;;26.52;69.81;99711.63;4493388;31;34004;-82
2023/06/23 01:19:08;;;;;;;;;;;;;;;26.70;68.94;99711.25;4483233;31;33830;-83
2023/06/23 01:21:39;;;;;;;;;;;;;;;26.47;69.56;99711.72;4485537;32;33853;-83
2023/06/23 01:24:06;;;;;;;;;;;;;;;26.39;69.46;99705.72;4486463;31;33924;-82
2023/06/23 01:26:49;;;;;;;;;;;;;;;26.44;69.64;99712.69;4481066;31;32828;-83
2023/06/23 01:29:24;;;;;;;;;;;;;;;26.27;70.24;99706.88;4479995;31;33929;-82
2023/06/23 01:31:56;;;;;;;;;;;;;;;26.03;70.81;99700.25;4477922;31;32488;-81
2023/06/23 01:34:25;;;;;;;;;;;;;;;26.20;70.64;99699.91;4469097;31;34091;-82
2023/06/23 01:37:07;;;;;;;;;;;;;;;26.31;70.09;99699.69;4469618;32;33886;-82
2023/06/23 01:39:36;;;;;;;;;;;;;;;26.41;69.07;99696.81;4480591;32;34399;-82
2023/06/23 01:42:05;;;;;;;;;;;;;;;26.02;69.98;99693.19;4472090;31;34288;-82
2023/06/23 01:44:32;;;;;;;;;;;;;;;26.08;69.59;99698.41;4472733;31;33567;-83
2023/06/23 01:47:01;;;;;;;;;;;;;;;26.38;69.71;99709.28;4473438;32;34009;-83
2023/06/23 01:49:36;;;;;;;;;;;;;;;26.51;69.10;99720.50;4484000;31;33812;-82
2023/06/23 01:52:04;;;;;;;;;;;;;;;26.76;68.17;99729.72;4441077;31;795013;-86
2023/06/23 01:54:31;;;;;;;;;;;;;;;26.75;68.13;99746.53;4478571;31;34708;-84
2023/06/23 01:56:59;;;;;;;;;;;;;;;26.54;68.91;99741.69;4475224;32;33993;-82
2023/06/23 01:59:26;;;;;;;;;;;;;;;26.49;68.86;99732.03;4486980;31;34143;-82
2023/06/23 02:01:54;;;;;;;;;;;;;;;26.13;70.54;99724.84;4490668;31;33969;-82
2023/06/23 02:04:21;;;;;;;;;;;;;;;26.17;69.54;99729.19;4479777;31;34290;-82
2023/06/23 02:06:49;;;;;;;;;;;;;;;26.29;69.11;99728.94;4473781;32;34119;-82
2023/06/23 02:09:22;;;;;;;;;;;;;;;26.08;70.71;99741.75;4474555;32;34646;-81
2023/06/23 02:11:50;;;;;;;;;;;;;;;26.31;69.65;99743.06;4486411;32;33355;-82
2023/06/23 02:14:18;;;;;;;;;;;;;;;26.00;71.08;99733.06;4474128;32;34970;-82
2023/06/23 02:16:45;;;;;;;;;;;;;;;25.90;71.47;99731.44;4475692;31;35032;-82
2023/06/23 02:19:13;;;;;;;;;;;;;;;26.05;70.29;99731.16;4474401;31;34181;-82
2023/06/23 02:21:40;;;;;;;;;;;;;;;26.04;70.75;99729.44;4483383;32;34129;-82
2023/06/23 02:24:08;;;;;;;;;;;;;;;26.08;70.73;99731.12;4493151;31;33727;-82
2023/06/23 02:26:35;;;;;;;;;;;;;;;25.95;70.87;99724.28;4477197;32;34338;-82
2023/06/23 02:29:03;;;;;;;;;;;;;;;25.84;71.22;99715.62;4480096;31;35143;-82
2023/06/23 02:31:30;;;;;;;;;;;;;;;25.95;71.01;99721.66;4461584;32;33172;-82
2023/06/23 02:33:58;;;;;;;;;;;;;;;25.90;71.29;99728.78;4488394;31;34129;-83
2023/06/23 02:36:27;;;;;;;;;;;;;;;26.01;70.55;99726.81;4494847;31;34803;-81
2023/06/23 02:38:56;;;;;;;;;;;;;;;26.28;69.24;99727.19;4489655;31;34073;-82
2023/06/23 02:41:25;;;;;;;;;;;;;;;26.11;70.21;99726.66;4485917;32;33861;-82
2023/06/23 02:43:54;;;;;;;;;;;;;;;26.18;69.45;99720.31;4471811;32;34881;-82
2023/06/23 02:46:23;;;;;;;;;;;;;;;26.51;68.51;99717.84;4475567;32;34133;-83
2023/06/23 02:48:51;;;;;;;;;;;;;;;26.04;70.01;99715.28;4483616;31;34295;-82
2023/06/23 02:51:19;;;;;;;;;;;;;;;25.82;70.89;99709.47;4482957;31;32994;-83
2023/06/23 02:53:48;;;;;;;;;;;;;;;25.64;71.25;99714.22;4469669;32;34176;-82
2023/06/23 02:56:19;;;;;;;;;;;;;;;25.96;69.92;99704.84;4479389;31;33555;-83
2023/06/23 02:58:47;;;;;;;;;;;;;;;25.61;70.71;99703.69;4476032;32;34101;-82
2023/06/23 03:01:14;;;;;;;;;;;;;;;25.61;70.55;99702.78;4469577;32;31734;-83
2023/06/23 03:03:42;;;;;;;;;;;;;;;25.40;72.83;99704.06;4483034;32;33611;-82
2023/06/23 03:06:19;;;;;;;;;;;;;;;25.73;71.56;99712.31;4477318;31;34149;-82
2023/06/23 03:08:50;;;;;;;;;;;;;;;25.67;70.66;99714.19;4484803;31;34135;-83
2023/06/23 03:11:18;;;;;;;;;;;;;;;25.86;70.50;99716.47;4472130;32;33546;-83
2023/06/23 03:13:46;;;;;;;;;;;;;;;26.03;69.70;99719.72;4489035;31;34463;-83
2023/06/23 03:16:16;;;;;;;;;;;;;;;25.95;69.65;99724.28;4496564;31;33960;-83
2023/06/23 03:18:48;;;;;;;;;;;;;;;25.94;69.79;99722.56;4462500;32;33322;-83
2023/06/23 03:21:15;;;;;;;;;;;;;;;26.10;69.64;99728.44;4473123;31;33881;-83
2023/06/23 03:23:49;;;;;;;;;;;;;;;26.22;69.50;99728.19;4497164;31;34732;-83
2023/06/23 03:26:17;;;;;;;;;;;;;;;26.30;68.82;99730.69;4472090;32;33888;-83
2023/06/23 03:28:45;;;;;;;;;;;;;;;26.16;69.66;99733.63;4477428;32;34603;-83
2023/06/23 03:31:15;;;;;;;;;;;;;;;26.14;69.79;99739.88;4472298;32;33163;-83
2023/06/23 03:33:43;;;;;;;;;;;;;;;26.26;69.57;99750.25;4487771;31;34204;-83
2023/06/23 03:36:12;;;;;;;;;;;;;;;26.27;69.28;99754.66;4494411;31;33876;-84
2023/06/23 03:38:57;;;;;;;;;;;;;;;26.54;67.95;99749.66;4485846;31;34036;-82
2023/06/23 03:41:29;;;;;;;;;;;;;;;26.29;69.44;99751.06;4474257;31;33295;-83
2023/06/23 03:44:07;;;;;;;;;;;;;;;26.63;67.89;99747.69;4471732;32;34576;-83
2023/06/23 03:46:51;;;;;;;;;;;;;;;26.37;68.74;99742.94;4481602;31;34086;-83
2023/06/23 03:49:20;;;;;;;;;;;;;;;26.43;68.10;99737.47;4481761;31;33661;-84
2023/06/23 03:51:47;;;;;;;;;;;;;;;26.65;67.86;99734.37;4476677;32;33581;-82
2023/06/23 03:54:15;;;;;;;;;;;;;;;26.35;68.02;99736.78;4474801;31;34139;-82
2023/06/23 03:56:43;;;;;;;;;;;;;;;26.40;68.43;99747.28;4481040;31;33958;-83
2023/06/23 03:59:10;;;;;;;;;;;;;;;26.42;68.71;99762.28;4481350;31;33984;-83
2023/06/23 04:01:38;;;;;;;;;;;;;;;26.49;68.78;99763.91;4477070;32;33335;-82
2023/06/23 04:04:06;;;;;;;;;;;;;;;26.25;69.29;99765.31;4478043;31;33934;-82
2023/06/23 04:06:33;;;;;;;;;;;;;;;26.54;68.21;99762.94;4478233;32;34502;-82
2023/06/23 04:09:00;;;;;;;;;;;;;;;26.55;68.25;99767.34;4498414;31;34282;-83
2023/06/23 04:11:28;;;;;;;;;;;;;;;26.53;68.21;99761.19;4472348;31;33288;-82
2023/06/23 04:13:55;;;;;;;;;;;;;;;26.59;67.97;99758.44;4476634;31;34270;-81
2023/06/23 04:16:23;;;;;;;;;;;;;;;26.77;67.28;99755.41;4477165;32;33933;-82
2023/06/23 04:18:51;;;;;;;;;;;;;;;26.79;67.40;99763.31;4470516;32;32491;-83
2023/06/23 04:21:18;;;;;;;;;;;;;;;27.00;66.58;99764.59;4482291;31;33130;-81
2023/06/23 04:23:45;;;;;;;;;;;;;;;26.98;66.25;99769.09;4468617;32;34922;-82
2023/06/23 04:26:13;;;;;;;;;;;;;;;26.87;66.90;99759.59;4476177;32;35710;-81
2023/06/23 04:28:41;;;;;;;;;;;;;;;26.82;66.91;99753.47;4477324;31;34231;-82
2023/06/23 04:31:08;;;;;;;;;;;;;;;26.86;66.42;99755.16;4471686;32;33508;-82
2023/06/23 04:33:36;;;;;;;;;;;;;;;26.88;66.85;99760.44;4488671;31;34169;-82
2023/06/23 04:36:13;;;;;;;;;;;;;;;27.04;66.73;99766.28;4492673;31;34292;-81
2023/06/23 04:38:43;;;;;;;;;;;;;;;27.02;66.32;99752.16;4469399;31;33694;-82
2023/06/23 04:41:12;;;;;;;;;;;;;;;27.06;66.96;99753.81;4478826;31;33510;-81
2023/06/23 04:43:40;;;;;;;;;;;;;;;27.08;66.45;99762.63;4468656;31;34148;-82
2023/06/23 04:46:16;;;;;;;;;;;;;;;27.04;66.17;99760.97;4477485;31;34756;-82
2023/06/23 04:48:48;;;;;;;;;;;;;;;27.19;65.75;99751.75;4474997;31;34049;-83
2023/06/23 04:51:16;;;;;;;;;;;;;;;27.45;65.19;99740.50;4482173;31;33478;-82
2023/06/23 04:53:45;;;;;;;;;;;;;;;26.82;67.08;99740.19;4482952;31;34484;-82
2023/06/23 04:56:16;;;;;;;;;;;;;;;27.17;65.90;99762.41;4459603;31;33302;-82
2023/06/23 04:58:44;;;;;;;;;;;;;;;27.12;66.25;99753.69;4481303;31;34084;-82
2023/06/23 05:01:11;;;;;;;;;;;;;;;27.21;65.36;99748.13;4470060;31;32138;-82
2023/06/23 05:03:39;;;;;;;;;;;;;;;27.25;65.51;99739.22;4476560;32;33879;-82
2023/06/23 05:06:07;;;;;;;;;;;;;;;27.47;64.89;99749.31;4461533;32;33339;-82
2023/06/23 05:08:34;;;;;;;;;;;;;;;27.62;64.33;99750.69;4484391;32;34141;-82
2023/06/23 05:11:05;;;;;;;;;;;;;;;27.67;63.79;99745.28;4470557;31;33465;-83
2023/06/23 05:13:33;;;;;;;;;;;;;;;27.84;63.47;99741.25;4471276;32;35570;-83
2023/06/23 05:16:02;;;;;;;;;;;;;;;27.80;63.34;99736.06;4484488;32;34763;-82
2023/06/23 05:18:29;;;;;;;;;;;;;;;27.68;63.32;99736.38;4484586;31;34294;-83
2023/06/23 05:21:00;;;;;;;;;;;;;;;27.96;62.49;99753.38;4470140;32;33785;-83
2023/06/23 05:23:27;;;;;;;;;;;;;;;27.68;63.81;99752.31;4473046;31;33226;-83
2023/06/23 05:26:05;;;;;;;;;;;;;;;28.06;62.36;99747.81;4480212;32;34160;-82
2023/06/23 05:28:35;;;;;;;;;;;;;;;27.93;63.01;99749.91;4486152;31;34033;-82
2023/06/23 05:31:03;;;;;;;;;;;;;;;28.15;62.91;99752.88;4461836;31;32505;-82
2023/06/23 05:33:35;;;;;;;;;;;;;;;28.39;61.79;99756.59;4484590;31;34081;-82
2023/06/23 05:36:03;;;;;;;;;;;;;;;28.06;62.48;99764.63;4462919;32;33161;-82
2023/06/23 05:38:30;;;;;;;;;;;;;;;28.27;62.00;99756.97;4480933;31;34159;-82
2023/06/23 05:40:57;;;;;;;;;;;;;;;28.42;61.41;99760.06;4489423;31;34053;-84
2023/06/23 05:43:25;;;;;;;;;;;;;;;28.08;62.22;99756.63;4474469;31;33948;-83
2023/06/23 05:45:52;;;;;;;;;;;;;;;28.24;61.77;99757.94;4496116;31;34300;-83
2023/06/23 05:48:22;;;;;;;;;;;;;;;28.10;62.12;99750.31;4479316;32;35030;-82
2023/06/23 05:50:50;;;;;;;;;;;;;;;28.29;61.61;99747.16;4483893;31;32389;-82
2023/06/23 05:53:17;;;;;;;;;;;;;;;28.63;60.84;99749.72;4488481;31;34312;-82
2023/06/23 05:56:00;;;;;;;;;;;;;;;28.54;61.12;99750.88;4482750;32;32487;-83
2023/06/23 05:58:29;;;;;;;;;;;;;;;28.66;60.87;99754.09;4468331;31;34274;-83
2023/06/23 06:00:57;;;;;;;;;;;;;;;28.42;61.46;99740.53;4475084;32;32722;-82
2023/06/23 06:03:26;;;;;;;;;;;;;;;28.76;60.08;99729.78;4472894;32;33698;-82
2023/06/23 06:05:54;;;;;;;;;;;;;;;28.50;61.06;99732.31;4482453;32;33902;-82
2023/06/23 06:08:21;;;;;;;;;;;;;;;28.30;63.25;99735.56;4492595;31;34904;-82
2023/06/23 06:10:49;;;;;;;;;;;;;;;28.51;62.13;99739.38;4483731;31;33013;-82
2023/06/23 06:13:16;;;;;;;;;;;;;;;28.62;60.69;99738.19;4473564;32;33922;-83
2023/06/23 06:15:44;;;;;;;;;;;;;;;28.75;60.47;99728.03;4486007;32;34998;-82
2023/06/23 06:18:12;;;;;;;;;;;;;;;28.87;60.54;99732.09;4466457;31;33527;-83
2023/06/23 06:20:41;;;;;;;;;;;;;;;28.69;59.80;99716.69;4477252;32;32881;-82
2023/06/23 06:23:09;;;;;;;;;;;;;;;29.15;59.50;99716.12;4485763;31;33917;-83
2023/06/23 06:25:52;;;;;;;;;;;;;;;29.37;59.81;99710.06;4473636;32;35091;-82
2023/06/23 06:28:20;;;;;;;;;;;;;;;29.63;59.78;99706.47;4477251;32;34086;-83
2023/06/23 06:30:47;;;;;;;;;;;;;;;29.26;60.61;99704.22;4480313;32;33307;-83
2023/06/23 06:33:15;;;;;;;;;;;;;;;28.89;60.80;99708.06;4467604;31;32943;-82
2023/06/23 06:35:42;;;;;;;;;;;;;;;28.89;60.38;99708.06;4485754;32;34908;-83
2023/06/23 06:38:09;;;;;;;;;;;;;;;29.02;60.30;99704.06;4485834;31;34906;-82
2023/06/23 06:40:37;;;;;;;;;;;;;;;29.54;59.67;99683.66;4476752;32;33621;-81
2023/06/23 06:43:04;;;;;;;;;;;;;;;29.84;59.05;99696.84;4471522;31;34052;-82
2023/06/23 06:45:32;;;;;;;;;;;;;;;29.75;58.78;99690.06;4479723;32;32333;-82
2023/06/23 06:48:03;;;;;;;;;;;;;;;29.82;58.29;99690.69;4485410;31;34348;-84
2023/06/23 06:50:30;;;;;;;;;;;;;;;30.00;57.25;99689.19;4476245;32;33129;-82
2023/06/23 06:52:58;;;;;;;;;;;;;;;30.16;58.07;99689.47;4472172;32;33673;-82
2023/06/23 06:55:26;;;;;;;;;;;;;;;29.96;57.95;99690.19;4474087;31;33933;-83
2023/06/23 06:57:53;;;;;;;;;;;;;;;30.33;57.29;99703.09;4496213;31;33823;-84
2023/06/23 07:00:22;;;;;;;;;;;;;;;29.99;57.81;99706.97;4473096;31;32903;-84
2023/06/23 07:02:49;;;;;;;;;;;;;;;28.82;59.66;99712.72;4491828;31;34958;-84
2023/06/23 07:05:17;;;;;;;;;;;;;;;30.17;57.52;99701.88;4498481;31;34203;-83
2023/06/23 07:07:44;;;;;;;;;;;;;;;30.56;56.37;99704.88;4477736;32;34560;-81
2023/06/23 07:10:12;;;;;;;;;;;;;;;30.33;58.17;99707.56;4485950;31;33737;-83
2023/06/23 07:12:39;;;;;;;;;;;;;;;29.30;59.65;99713.84;4473116;32;34282;-82
2023/06/23 07:15:09;;;;;;;;;;;;;;;29.34;60.33;99704.81;4484660;31;34848;-82
2023/06/23 07:17:37;;;;;;;;;;;;;;;30.13;59.23;99702.94;4485891;32;33119;-83
2023/06/23 07:20:07;;;;;;;;;;;;;;;30.61;58.17;99702.00;4485289;31;33522;-83
2023/06/23 07:22:34;;;;;;;;;;;;;;;30.39;57.79;99702.00;4485419;31;34309;-82
2023/06/23 07:25:02;;;;;;;;;;;;;;;30.27;59.10;99703.31;4485230;31;34158;-81
2023/06/23 07:27:29;;;;;;;;;;;;;;;29.89;58.36;99691.38;4483907;31;34251;-81
2023/06/23 07:29:58;;;;;;;;;;;;;;;29.65;59.29;99693.06;4485571;31;33262;-81
2023/06/23 07:32:26;;;;;;;;;;;;;;;29.88;59.02;99695.84;4482970;31;34391;-81
2023/06/23 07:34:53;;;;;;;;;;;;;;;31.16;55.22;99683.75;4483949;31;33530;-83
2023/06/23 07:37:20;;;;;;;;;;;;;;;31.83;53.17;99688.94;4485584;31;34208;-83
2023/06/23 07:39:48;;;;;;;;;;;;;;;31.76;54.16;99688.37;4485709;31;34594;-84
2023/06/23 07:42:15;;;;;;;;;;;;;;;31.41;53.62;99698.78;4484492;31;33991;-84
2023/06/23 07:44:43;;;;;;;;;;;;;;;31.92;52.45;99699.25;4483543;31;33811;-83
2023/06/23 07:47:12;;;;;;;;;;;;;;;32.09;51.47;99690.50;4485246;31;34239;-85
2023/06/23 07:49:41;;;;;;;;;;;;;;;31.61;52.73;99689.06;4486672;31;32915;-82
2023/06/23 07:52:08;;;;;;;;;;;;;;;31.99;51.75;99695.38;4488315;31;34938;-84
2023/06/23 07:54:39;;;;;;;;;;;;;;;32.88;49.66;99690.38;4484299;31;33781;-84
2023/06/23 07:57:08;;;;;;;;;;;;;;;34.14;47.22;99689.25;4484573;31;34813;-85
2023/06/23 07:59:35;;;;;;;;;;;;;;;34.41;46.06;99691.41;4485265;31;33843;-84
2023/06/23 08:02:03;;;;;;;;;;;;;;;35.29;43.97;99689.97;4491708;31;34979;-84
2023/06/23 08:04:31;;;;;;;;;;;;;;;35.88;43.26;99692.72;4491136;31;33912;-84
2023/06/23 08:06:58;;;;;;;;;;;;;;;36.59;41.39;99689.13;4485282;32;34187;-84
2023/06/23 08:09:26;;;;;;;;;;;;;;;36.61;40.07;99687.22;4498096;31;33002;-84
2023/06/23 08:11:53;;;;;;;;;;;;;;;37.11;39.82;99675.91;4485178;32;34558;-84
2023/06/23 08:14:21;;;;;;;;;;;;;;;36.29;40.64;99680.34;4485045;32;33901;-84
2023/06/23 08:16:48;;;;;;;;;;;;;;;37.55;39.60;99669.28;4470970;32;34295;-84
2023/06/23 08:19:21;;;;;;;;;;;;;;;38.04;38.04;99678.53;4498109;31;33392;-84
2023/06/23 08:21:49;;;;;;;;;;;;;;;37.12;39.89;99685.72;4485044;32;33544;-85
2023/06/23 08:24:16;;;;;;;;;;;;;;;37.67;38.42;99682.00;4484988;32;34051;-85
2023/06/23 08:26:44;;;;;;;;;;;;;;;39.02;36.18;99681.31;4470285;32;34801;-84
2023/06/23 08:29:11;;;;;;;;;;;;;;;38.83;35.57;99661.03;4497397;31;33414;-84
2023/06/23 08:31:39;;;;;;;;;;;;;;;39.46;35.57;99663.53;4484979;32;34806;-84
2023/06/23 08:34:06;;;;;;;;;;;;;;;38.54;36.06;99677.59;4484470;32;34121;-84
2023/06/23 08:36:33;;;;;;;;;;;;;;;38.86;35.35;99677.03;4484930;32;33749;-85
2023/06/23 08:39:01;;;;;;;;;;;;;;;39.03;34.89;99666.81;4485121;32;33991;-85
2023/06/23 08:41:28;;;;;;;;;;;;;;;39.98;33.65;99669.41;4484852;32;33736;-85
2023/06/23 08:43:55;;;;;;;;;;;;;;;37.14;38.19;99668.47;4480864;32;33750;-84
2023/06/23 08:46:23;;;;;;;;;;;;;;;38.66;35.80;99674.97;4479486;31;34556;-85
2023/06/23 08:48:51;;;;;;;;;;;;;;;37.85;37.91;99668.16;4474706;32;33856;-84
2023/06/23 08:51:18;;;;;;;;;;;;;;;38.56;35.51;99672.09;4497667;31;33516;-85
2023/06/23 08:53:46;;;;;;;;;;;;;;;34.57;44.82;99670.75;4484868;32;35342;-85
2023/06/23 08:56:13;;;;;;;;;;;;;;;35.86;43.18;99667.72;4478939;32;33574;-85
2023/06/23 08:58:40;;;;;;;;;;;;;;;36.44;40.92;99673.09;4495464;31;33245;-84
2023/06/23 09:01:08;;;;;;;;;;;;;;;37.47;38.21;99666.25;4473274;31;33683;-84
2023/06/23 09:03:35;;;;;;;;;;;;;;;37.36;41.86;99669.72;4496112;31;35040;-88
2023/06/23 09:06:03;;;;;;;;;;;;;;;36.92;39.12;99677.12;4484512;32;34798;-85
2023/06/23 09:08:30;;;;;;;;;;;;;;;37.09;38.88;99680.50;4470424;32;33542;-84
2023/06/23 09:10:58;;;;;;;;;;;;;;;35.94;42.41;99680.69;4484454;32;33789;-84
2023/06/23 09:13:27;;;;;;;;;;;;;;;35.95;41.75;99682.41;4497586;31;34982;-84
2023/06/23 09:15:54;;;;;;;;;;;;;;;36.39;41.22;99676.06;4484539;32;34708;-85
2023/06/23 09:18:30;;;;;;;;;;;;;;;36.46;42.67;99682.81;4484474;32;33224;-85
2023/06/23 09:20:57;;;;;;;;;;;;;;;34.83;44.70;99698.03;4484342;32;34157;-88
2023/06/23 09:23:25;;;;;;;;;;;;;;;35.60;43.31;99698.91;4472935;31;34444;-86
2023/06/23 09:25:54;;;;;;;;;;;;;;;35.37;43.74;99686.81;4494902;31;34379;-83
2023/06/23 09:28:32;;;;;;;;;;;;;;;35.46;44.12;99680.03;4484398;32;33249;-86
2023/06/23 09:31:00;;;;;;;;;;;;;;;33.78;49.14;99681.34;4473326;32;33834;-84
2023/06/23 09:33:27;;;;;;;;;;;;;;;33.44;49.05;99677.75;4483235;31;32952;-85
2023/06/23 09:35:55;;;;;;;;;;;;;;;34.54;46.59;99692.47;4470401;32;34153;-85
2023/06/23 09:38:23;;;;;;;;;;;;;;;35.40;46.63;99687.50;4475743;32;34255;-85
2023/06/23 09:41:09;;;;;;;;;;;;;;;35.61;44.56;99687.19;4484099;32;34830;-84
2023/06/23 09:43:41;;;;;;;;;;;;;;;34.19;48.14;99697.97;4468377;31;34712;-86
2023/06/23 09:46:10;;;;;;;;;;;;;;;32.71;50.88;99700.09;4469806;32;32636;-87
2023/06/23 09:48:40;;;;;;;;;;;;;;;34.19;48.50;99697.97;4494642;31;33407;-85
2023/06/23 09:51:07;;;;;;;;;;;;;;;34.48;47.48;99703.56;4486097;31;34784;-85
2023/06/23 09:53:37;;;;;;;;;;;;;;;35.11;45.30;99707.19;4484899;31;34216;-84
2023/06/23 09:56:05;;;;;;;;;;;;;;;34.93;44.53;99717.22;4483813;31;35001;-84
2023/06/23 09:58:36;;;;;;;;;;;;;;;34.74;45.70;99720.09;4482932;31;33573;-83
2023/06/23 10:01:05;;;;;;;;;;;;;;;32.92;49.91;99713.41;4485192;31;33982;-85
2023/06/23 10:03:32;;;;;;;;;;;;;;;34.37;48.41;99716.75;4486410;31;34911;-85
2023/06/23 10:06:00;;;;;;;;;;;;;;;34.97;44.91;99708.88;4475635;31;34198;-88
2023/06/23 10:08:27;;;;;;;;;;;;;;;35.21;43.13;99711.97;4486723;31;33983;-86
2023/06/23 10:10:55;;;;;;;;;;;;;;;35.23;44.08;99709.19;4483684;31;34102;-85
2023/06/23 10:13:22;;;;;;;;;;;;;;;34.86;44.04;99708.62;4484906;31;34085;-85
2023/06/23 10:15:49;;;;;;;;;;;;;;;34.88;44.53;99717.47;4490591;31;34311;-84
2023/06/23 10:18:17;;;;;;;;;;;;;;;35.00;45.26;99705.13;4492640;31;34087;-84
2023/06/23 10:20:44;;;;;;;;;;;;;;;34.61;45.15;99704.59;4482076;31;34240;-86
2023/06/23 10:23:12;;;;;;;;;;;;;;;35.28;43.73;99708.94;4471221;31;35126;-84
2023/06/23 10:25:40;;;;;;;;;;;;;;;34.18;45.70;99706.97;4474213;31;33870;-84
2023/06/23 10:28:08;;;;;;;;;;;;;;;34.34;44.58;99703.44;4476814;31;32248;-84
2023/06/23 10:30:35;;;;;;;;;;;;;;;33.61;47.24;99703.69;4477224;31;33675;-84
2023/06/23 10:33:03;;;;;;;;;;;;;;;33.99;46.27;99704.37;4484635;31;33739;-85
2023/06/23 10:35:31;;;;;;;;;;;;;;;34.20;46.58;99699.69;4488942;31;34584;-86
2023/06/23 10:38:03;;;;;;;;;;;;;;;34.08;47.63;99694.97;4481552;32;33138;-87
2023/06/23 10:40:38;;;;;;;;;;;;;;;34.90;46.00;99698.53;4487735;31;34126;-87
2023/06/23 10:43:06;;;;;;;;;;;;;;;34.98;45.04;99699.84;4498389;31;33737;-85
2023/06/23 10:45:34;;;;;;;;;;;;;;;35.47;45.57;99687.16;4489127;31;35121;-85
2023/06/23 10:48:02;;;;;;;;;;;;;;;35.79;45.21;99686.09;4480790;31;33492;-85
2023/06/23 10:50:30;;;;;;;;;;;;;;;34.02;46.83;99684.56;4481044;31;34810;-85
2023/06/23 10:53:09;;;;;;;;;;;;;;;34.83;46.59;99676.53;4474324;31;34843;-85
2023/06/23 10:55:38;;;;;;;;;;;;;;;35.49;43.60;99675.34;4485148;31;34290;-86
2023/06/23 10:58:18;;;;;;;;;;;;;;;35.76;42.06;99666.56;4485547;32;33381;-85
2023/06/23 11:01:05;;;;;;;;;;;;;;;36.03;40.84;99669.34;4485540;32;34349;-87
2023/06/23 11:03:33;;;;;;;;;;;;;;;35.61;40.98;99668.31;4485844;31;34162;-86
2023/06/23 11:06:04;;;;;;;;;;;;;;;35.42;41.20;99669.44;4493580;31;34004;-84
2023/06/23 11:08:40;;;;;;;;;;;;;;;34.86;41.27;99657.50;4485627;32;33421;-85
2023/06/23 11:11:08;;;;;;;;;;;;;;;35.54;40.09;99656.19;4485510;32;33860;-87
2023/06/23 11:13:45;;;;;;;;;;;;;;;36.16;38.96;99659.56;4485654;32;34148;-86
2023/06/23 11:16:17;;;;;;;;;;;;;;;36.11;39.44;99661.62;4487789;31;33850;-87
2023/06/23 11:18:59;;;;;;;;;;;;;;;36.15;38.46;99663.16;4493199;31;33817;-85
2023/06/23 11:21:30;;;;;;;;;;;;;;;36.97;35.91;99661.50;4489488;31;34371;-84
2023/06/23 11:24:06;;;;;;;;;;;;;;;37.10;36.30;99657.94;4475133;31;32016;-87
2023/06/23 11:26:33;;;;;;;;;;;;;;;36.49;39.43;99661.03;4489791;31;33667;-84
2023/06/23 11:29:01;;;;;;;;;;;;;;;35.08;41.45;99659.81;4496165;31;33530;-84
2023/06/23 11:31:28;;;;;;;;;;;;;;;36.16;37.89;99654.16;4487268;31;34080;-87
2023/06/23 11:34:00;;;;;;;;;;;;;;;35.96;39.63;99651.81;4477504;31;34419;-84
2023/06/23 11:36:28;;;;;;;;;;;;;;;35.26;41.98;99646.25;4487853;31;35024;-83
2023/06/23 11:38:55;;;;;;;;;;;;;;;34.69;44.65;99642.31;4485025;32;34324;-84
2023/06/23 11:41:27;;;;;;;;;;;;;;;34.73;46.00;99646.59;4477406;32;35439;-88
2023/06/23 11:43:58;;;;;;;;;;;;;;;34.13;48.09;99647.19;4492999;31;33982;-83
2023/06/23 11:46:31;;;;;;;;;;;;;;;34.93;47.33;99642.72;4474097;31;32250;-85
2023/06/23 11:49:07;;;;;;;;;;;;;;;34.14;49.27;99646.25;4490490;31;33002;-85
2023/06/23 11:51:35;;;;;;;;;;;;;;;34.86;47.19;99639.50;4476032;32;34841;-85
2023/06/23 11:54:02;;;;;;;;;;;;;;;35.45;46.44;99636.06;4490727;31;34204;-84
2023/06/23 11:56:29;;;;;;;;;;;;;;;33.86;49.50;99642.41;4492819;31;34268;-84
2023/06/23 11:58:57;;;;;;;;;;;;;;;34.01;49.52;99629.06;4475100;32;33981;-85
2023/06/23 12:01:24;;;;;;;;;;;;;;;34.33;49.44;99634.53;4468317;31;32581;-85
2023/06/23 12:03:55;;;;;;;;;;;;;;;33.91;50.70;99634.06;4491368;31;33851;-85
2023/06/23 12:06:27;;;;;;;;;;;;;;;34.19;50.77;99632.56;4490022;31;33598;-85
2023/06/23 12:08:54;;;;;;;;;;;;;;;34.54;49.32;99627.91;4488230;31;33409;-84
2023/06/23 12:11:21;;;;;;;;;;;;;;;34.78;50.69;99616.72;4487487;31;33797;-86
2023/06/23 12:13:52;;;;;;;;;;;;;;;34.37;48.91;99622.63;4491364;31;34075;-86
2023/06/23 12:16:20;;;;;;;;;;;;;;;34.47;49.32;99615.75;4490101;31;34348;-86
2023/06/23 12:18:48;;;;;;;;;;;;;;;34.92;47.13;99606.00;4487507;31;33338;-82
2023/06/23 12:21:17;;;;;;;;;;;;;;;34.81;50.34;99598.56;4489058;31;33841;-87
2023/06/23 12:23:44;;;;;;;;;;;;;;;34.11;51.44;99607.91;4489601;31;34201;-84
2023/06/23 12:26:12;;;;;;;;;;;;;;;34.71;48.34;99601.88;4475177;31;34088;-88
2023/06/23 12:28:39;;;;;;;;;;;;;;;33.40;50.62;99607.22;4473685;31;33664;-83
2023/06/23 12:31:07;;;;;;;;;;;;;;;34.73;48.26;99594.59;4488082;31;34034;-85
2023/06/23 12:33:37;;;;;;;;;;;;;;;34.69;48.42;99603.78;4484984;31;34319;-86
2023/06/23 12:36:08;;;;;;;;;;;;;;;34.34;47.71;99614.72;4485544;31;34067;-86
2023/06/23 12:38:37;;;;;;;;;;;;;;;34.16;47.60;99606.75;4459822;32;33842;-85
2023/06/23 12:41:14;;;;;;;;;;;;;;;34.78;47.54;99592.50;4472424;32;34147;-84
2023/06/23 12:43:44;;;;;;;;;;;;;;;33.70;49.63;99598.50;4479359;32;33717;-84
2023/06/23 12:46:12;;;;;;;;;;;;;;;34.27;48.82;99598.94;4486338;31;34605;-85
2023/06/23 12:48:40;;;;;;;;;;;;;;;34.45;47.07;99593.47;4473175;31;34208;-84
2023/06/23 12:51:07;;;;;;;;;;;;;;;34.99;44.47;99577.75;4487454;31;34307;-85
2023/06/23 12:53:35;;;;;;;;;;;;;;;35.19;46.35;99575.72;4483889;31;33950;-86
2023/06/23 12:56:03;;;;;;;;;;;;;;;35.15;45.62;99580.38;4476461;32;34818;-83
2023/06/23 12:58:30;;;;;;;;;;;;;;;34.97;47.06;99577.00;4486026;31;33436;-84